createdAt,value
2023-02-05T00:00:56.621Z,23.30
2023-02-05T00:01:56.616Z,29.60
2023-02-05T00:02:56.548Z,29.70
2023-02-05T00:03:56.523Z,28.20
2023-02-05T00:04:56.479Z,25.10
2023-02-05T00:05:56.453Z,28.20
2023-02-05T00:06:56.423Z,25.90
2023-02-05T00:07:56.395Z,31.80
2023-02-05T00:08:56.365Z,28.50
2023-02-05T00:09:56.337Z,30.70
2023-02-05T00:10:56.314Z,23.90
2023-02-05T00:11:56.277Z,22.50
2023-02-05T00:12:56.257Z,20.80
2023-02-05T00:13:56.224Z,21.50
2023-02-05T00:14:56.193Z,20.30
2023-02-05T00:15:56.164Z,22.20
2023-02-05T00:16:56.217Z,22.90
2023-02-05T00:17:56.107Z,21.10
2023-02-05T00:18:56.078Z,18.80
2023-02-05T00:19:56.053Z,20.70
2023-02-05T00:20:56.019Z,20.50
2023-02-05T00:21:55.990Z,19.60
2023-02-05T00:22:55.964Z,17.80
2023-02-05T00:23:55.946Z,18.90
2023-02-05T00:24:55.904Z,21.50
2023-02-05T00:25:55.877Z,20.40
2023-02-05T00:26:55.851Z,17.20
2023-02-05T00:27:55.834Z,16.80
2023-02-05T00:28:55.789Z,16.00
2023-02-05T00:29:55.766Z,16.10
2023-02-05T00:30:55.773Z,17.40
2023-02-05T00:31:55.703Z,16.60
2023-02-05T00:32:55.689Z,17.20
2023-02-05T00:33:55.648Z,16.20
2023-02-05T00:34:55.616Z,15.00
2023-02-05T00:35:55.593Z,15.80
2023-02-05T00:36:55.561Z,15.00
2023-02-05T00:37:55.535Z,15.40
2023-02-05T00:38:55.506Z,15.40
2023-02-05T00:39:55.476Z,15.80
2023-02-05T00:40:55.445Z,14.30
2023-02-05T00:41:55.422Z,16.40
2023-02-05T00:42:55.387Z,14.30
2023-02-05T00:43:55.359Z,15.70
2023-02-05T00:44:55.328Z,14.10
2023-02-05T00:45:55.330Z,14.80
2023-02-05T00:46:55.271Z,15.10
2023-02-05T00:47:55.241Z,16.40
2023-02-05T00:48:55.231Z,16.00
2023-02-05T00:49:55.193Z,15.00
2023-02-05T00:50:55.154Z,14.80
2023-02-05T00:51:55.130Z,13.30
2023-02-05T00:52:55.097Z,15.30
2023-02-05T00:53:55.070Z,17.40
2023-02-05T00:54:55.039Z,11.90
2023-02-05T00:55:55.010Z,16.90
2023-02-05T00:56:55.004Z,13.60
2023-02-05T00:57:54.954Z,16.70
2023-02-05T00:58:54.930Z,13.00
2023-02-05T00:59:54.903Z,14.00
2023-02-05T01:00:54.864Z,16.20
2023-02-05T01:01:54.840Z,13.20
2023-02-05T01:02:54.805Z,13.90
2023-02-05T01:03:54.779Z,14.10
2023-02-05T01:04:54.768Z,17.20
2023-02-05T01:05:54.726Z,14.40
2023-02-05T01:06:54.693Z,17.60
2023-02-05T01:07:54.664Z,15.00
2023-02-05T01:08:54.637Z,17.20
2023-02-05T01:09:54.609Z,16.30
2023-02-05T01:10:54.587Z,16.60
2023-02-05T01:11:54.555Z,15.20
2023-02-05T01:12:54.519Z,13.90
2023-02-05T01:13:54.511Z,15.90
2023-02-05T01:14:54.459Z,14.40
2023-02-05T01:15:54.529Z,13.70
2023-02-05T01:16:54.407Z,18.40
2023-02-05T01:17:54.383Z,15.40
2023-02-05T01:18:54.348Z,15.10
2023-02-05T01:19:54.320Z,16.30
2023-02-05T01:20:54.324Z,18.30
2023-02-05T01:21:54.262Z,15.50
2023-02-05T01:22:54.236Z,15.80
2023-02-05T01:23:54.201Z,18.70
2023-02-05T01:24:54.170Z,17.90
2023-02-05T01:25:54.143Z,17.60
2023-02-05T01:26:54.115Z,17.80
2023-02-05T01:27:54.125Z,17.00
2023-02-05T01:28:54.058Z,15.80
2023-02-05T01:29:54.026Z,18.30
2023-02-05T01:30:54.113Z,20.20
2023-02-05T01:31:54.008Z,16.90
2023-02-05T01:32:53.941Z,16.80
2023-02-05T01:33:53.915Z,17.20
2023-02-05T01:34:53.884Z,19.40
2023-02-05T01:35:53.853Z,18.70
2023-02-05T01:36:53.841Z,16.90
2023-02-05T01:37:53.797Z,17.50
2023-02-05T01:38:53.766Z,15.60
2023-02-05T01:39:53.735Z,17.00
2023-02-05T01:40:53.703Z,13.40
2023-02-05T01:41:53.677Z,17.60
2023-02-05T01:42:53.646Z,13.90
2023-02-05T01:43:53.619Z,18.80
2023-02-05T01:44:53.590Z,17.10
2023-02-05T01:45:53.558Z,15.20
2023-02-05T01:46:53.537Z,15.90
2023-02-05T01:47:53.501Z,14.20
2023-02-05T01:48:53.468Z,15.00
2023-02-05T01:49:53.442Z,18.00
2023-02-05T01:50:53.415Z,19.30
2023-02-05T01:51:53.383Z,15.50
2023-02-05T01:52:53.373Z,18.10
2023-02-05T01:53:53.360Z,17.90
2023-02-05T01:54:53.314Z,16.60
2023-02-05T01:55:53.277Z,16.10
2023-02-05T01:56:53.235Z,17.30
2023-02-05T01:57:53.221Z,16.50
2023-02-05T01:58:53.181Z,18.10
2023-02-05T01:59:53.153Z,14.90
2023-02-05T02:00:53.124Z,14.30
2023-02-05T02:01:53.159Z,15.60
2023-02-05T02:02:53.063Z,15.00
2023-02-05T02:03:53.036Z,15.40
2023-02-05T02:04:53.029Z,13.90
2023-02-05T02:05:52.981Z,15.30
2023-02-05T02:06:52.950Z,19.20
2023-02-05T02:07:52.924Z,16.90
2023-02-05T02:08:52.914Z,15.30
2023-02-05T02:09:52.863Z,15.40
2023-02-05T02:10:52.835Z,17.30
2023-02-05T02:11:52.808Z,14.80
2023-02-05T02:12:52.779Z,16.10
2023-02-05T02:13:52.750Z,15.70
2023-02-05T02:14:52.727Z,16.70
2023-02-05T02:15:52.710Z,16.30
2023-02-05T02:16:52.663Z,15.70
2023-02-05T02:17:52.651Z,17.10
2023-02-05T02:18:52.608Z,16.50
2023-02-05T02:19:52.580Z,16.20
2023-02-05T02:20:52.661Z,20.80
2023-02-05T02:21:52.521Z,14.00
2023-02-05T02:22:52.499Z,19.50
2023-02-05T02:23:52.465Z,14.50
2023-02-05T02:24:52.452Z,15.30
2023-02-05T02:25:52.409Z,16.00
2023-02-05T02:26:52.377Z,14.50
2023-02-05T02:27:52.434Z,19.20
2023-02-05T02:28:52.320Z,15.60
2023-02-05T02:29:52.293Z,17.50
2023-02-05T02:30:52.351Z,20.50
2023-02-05T02:31:52.236Z,22.30
2023-02-05T02:32:52.206Z,25.10
2023-02-05T02:33:52.180Z,19.80
2023-02-05T02:34:52.161Z,22.20
2023-02-05T02:35:52.127Z,19.10
2023-02-05T02:36:52.091Z,18.20
2023-02-05T02:37:52.060Z,16.00
2023-02-05T02:38:52.031Z,21.40
2023-02-05T02:39:52.010Z,17.50
2023-02-05T02:40:52.003Z,19.40
2023-02-05T02:41:51.947Z,18.00
2023-02-05T02:42:51.921Z,17.50
2023-02-05T02:43:51.887Z,17.10
2023-02-05T02:44:51.864Z,17.10
2023-02-05T02:45:51.838Z,17.20
2023-02-05T02:46:51.871Z,16.90
2023-02-05T02:47:51.775Z,17.70
2023-02-05T02:48:51.748Z,19.10
2023-02-05T02:49:51.721Z,17.10
2023-02-05T02:50:51.692Z,15.90
2023-02-05T02:51:51.664Z,15.10
2023-02-05T02:52:51.633Z,18.00
2023-02-05T02:53:51.608Z,15.90
2023-02-05T02:54:51.578Z,15.00
2023-02-05T02:55:51.552Z,16.90
2023-02-05T02:56:51.540Z,15.40
2023-02-05T02:57:51.499Z,19.40
2023-02-05T02:58:51.464Z,18.90
2023-02-05T02:59:51.438Z,29.80
2023-02-05T03:00:51.517Z,31.90
2023-02-05T03:01:53.745Z,27.60
2023-02-05T03:02:51.350Z,25.30
2023-02-05T03:03:51.361Z,21.20
2023-02-05T03:04:51.292Z,19.60
2023-02-05T03:05:51.267Z,23.00
2023-02-05T03:06:51.236Z,22.00
2023-02-05T03:07:51.206Z,15.80
2023-02-05T03:08:51.176Z,15.30
2023-02-05T03:09:51.167Z,16.50
2023-02-05T03:10:51.120Z,17.50
2023-02-05T03:11:51.092Z,17.40
2023-02-05T03:12:51.084Z,17.50
2023-02-05T03:13:51.036Z,17.80
2023-02-05T03:14:51.008Z,17.30
2023-02-05T03:15:50.978Z,19.20
2023-02-05T03:16:50.949Z,17.80
2023-02-05T03:17:50.922Z,18.50
2023-02-05T03:18:50.892Z,14.90
2023-02-05T03:19:50.872Z,20.10
2023-02-05T03:20:50.838Z,17.30
2023-02-05T03:21:50.806Z,16.70
2023-02-05T03:22:50.781Z,16.10
2023-02-05T03:23:50.751Z,19.90
2023-02-05T03:24:50.717Z,17.40
2023-02-05T03:25:50.693Z,22.00
2023-02-05T03:26:50.661Z,15.60
2023-02-05T03:27:50.696Z,16.80
2023-02-05T03:28:50.629Z,15.50
2023-02-05T03:29:50.583Z,18.50
2023-02-05T03:30:50.563Z,15.40
2023-02-05T03:31:50.556Z,15.60
2023-02-05T03:32:50.501Z,15.80
2023-02-05T03:33:50.464Z,15.20
2023-02-05T03:34:50.433Z,16.60
2023-02-05T03:35:50.403Z,15.70
2023-02-05T03:36:50.374Z,18.00
2023-02-05T03:37:50.356Z,15.90
2023-02-05T03:38:50.318Z,16.30
2023-02-05T03:39:50.289Z,16.50
2023-02-05T03:40:50.260Z,19.80
2023-02-05T03:41:50.250Z,17.90
2023-02-05T03:42:50.206Z,17.70
2023-02-05T03:43:50.174Z,15.60
2023-02-05T03:44:50.171Z,16.40
2023-02-05T03:45:50.157Z,18.70
2023-02-05T03:46:50.090Z,16.10
2023-02-05T03:47:50.059Z,15.60
2023-02-05T03:48:50.030Z,18.20
2023-02-05T03:49:50.004Z,19.80
2023-02-05T03:50:49.980Z,18.00
2023-02-05T03:51:49.947Z,16.60
2023-02-05T03:52:49.916Z,16.60
2023-02-05T03:53:49.894Z,15.20
2023-02-05T03:54:49.856Z,19.90
2023-02-05T03:55:49.828Z,19.50
2023-02-05T03:56:49.798Z,15.70
2023-02-05T03:57:49.780Z,13.90
2023-02-05T03:58:49.739Z,17.10
2023-02-05T03:59:49.718Z,17.00
2023-02-05T04:00:49.753Z,19.30
2023-02-05T04:01:49.652Z,17.40
2023-02-05T04:02:49.635Z,19.40
2023-02-05T04:03:49.597Z,18.30
2023-02-05T04:04:49.571Z,18.10
2023-02-05T04:05:49.534Z,16.80
2023-02-05T04:06:49.511Z,14.80
2023-02-05T04:07:49.476Z,18.00
2023-02-05T04:08:49.476Z,15.10
2023-02-05T04:09:49.422Z,17.00
2023-02-05T04:10:49.405Z,17.00
2023-02-05T04:11:49.362Z,16.70
2023-02-05T04:12:49.333Z,21.70
2023-02-05T04:13:49.304Z,22.80
2023-02-05T04:14:49.282Z,19.70
2023-02-05T04:15:49.252Z,19.00
2023-02-05T04:16:49.253Z,20.70
2023-02-05T04:17:49.196Z,21.80
2023-02-05T04:18:49.166Z,33.80
2023-02-05T04:19:49.139Z,35.40
2023-02-05T04:20:49.106Z,30.70
2023-02-05T04:21:49.079Z,29.80
2023-02-05T04:22:49.050Z,30.10
2023-02-05T04:23:49.025Z,30.60
2023-02-05T04:24:48.994Z,37.40
2023-02-05T04:25:48.963Z,32.10
2023-02-05T04:26:48.938Z,33.80
2023-02-05T04:27:48.927Z,26.80
2023-02-05T04:28:48.883Z,27.40
2023-02-05T04:29:48.850Z,37.50
2023-02-05T04:30:48.867Z,29.10
2023-02-05T04:31:48.855Z,29.00
2023-02-05T04:32:48.803Z,29.90
2023-02-05T04:33:48.750Z,31.80
2023-02-05T04:34:48.712Z,27.40
2023-02-05T04:35:48.686Z,29.10
2023-02-05T04:36:48.656Z,25.40
2023-02-05T04:37:48.628Z,32.60
2023-02-05T04:38:48.602Z,35.20
2023-02-05T04:39:48.570Z,32.90
2023-02-05T04:40:48.544Z,23.40
2023-02-05T04:41:48.513Z,35.00
2023-02-05T04:42:48.487Z,38.10
2023-02-05T04:43:48.455Z,31.40
2023-02-05T04:44:48.430Z,31.90
2023-02-05T04:45:48.492Z,30.50
2023-02-05T04:46:48.374Z,32.30
2023-02-05T04:47:48.345Z,31.70
2023-02-05T04:48:48.337Z,31.80
2023-02-05T04:49:48.291Z,33.60
2023-02-05T04:50:48.261Z,32.10
2023-02-05T04:51:48.230Z,32.50
2023-02-05T04:52:48.203Z,27.40
2023-02-05T04:53:48.173Z,31.30
2023-02-05T04:54:48.146Z,29.40
2023-02-05T04:55:48.130Z,34.40
2023-02-05T04:56:48.089Z,30.60
2023-02-05T04:57:48.063Z,40.60
2023-02-05T04:58:48.034Z,31.50
2023-02-05T04:59:48.000Z,27.90
2023-02-05T05:00:48.078Z,36.70
2023-02-05T05:01:47.949Z,30.10
2023-02-05T05:02:48.003Z,29.40
2023-02-05T05:03:47.895Z,29.60
2023-02-05T05:04:47.884Z,32.50
2023-02-05T05:05:47.860Z,29.80
2023-02-05T05:06:47.805Z,33.40
2023-02-05T05:07:47.773Z,33.30
2023-02-05T05:08:47.746Z,33.30
2023-02-05T05:09:47.716Z,36.10
2023-02-05T05:10:47.688Z,33.50
2023-02-05T05:11:47.659Z,32.50
2023-02-05T05:12:47.631Z,34.00
2023-02-05T05:13:47.605Z,33.10
2023-02-05T05:14:47.579Z,36.90
2023-02-05T05:15:47.572Z,40.30
2023-02-05T05:16:47.518Z,30.40
2023-02-05T05:17:47.493Z,37.90
2023-02-05T05:18:47.485Z,38.80
2023-02-05T05:19:47.434Z,30.80
2023-02-05T05:20:53.402Z,36.00
2023-02-05T05:21:47.454Z,36.70
2023-02-05T05:22:47.360Z,36.20
2023-02-05T05:23:47.317Z,43.20
2023-02-05T05:24:47.291Z,34.50
2023-02-05T05:25:47.261Z,36.00
2023-02-05T05:26:47.234Z,40.00
2023-02-05T05:27:47.256Z,38.60
2023-02-05T05:28:47.185Z,41.00
2023-02-05T05:29:47.146Z,41.70
2023-02-05T05:30:47.180Z,41.90
2023-02-05T05:31:47.143Z,42.60
2023-02-05T05:32:47.070Z,41.20
2023-02-05T05:33:47.170Z,44.00
2023-02-05T05:34:47.007Z,41.20
2023-02-05T05:35:46.975Z,38.30
2023-02-05T05:36:46.950Z,50.20
2023-02-05T05:37:46.987Z,43.20
2023-02-05T05:38:46.897Z,46.00
2023-02-05T05:39:46.870Z,44.70
2023-02-05T05:40:46.836Z,43.10
2023-02-05T05:41:46.807Z,42.90
2023-02-05T05:42:46.783Z,44.30
2023-02-05T05:43:46.769Z,47.10
2023-02-05T05:44:46.723Z,48.30
2023-02-05T05:45:46.753Z,41.90
2023-02-05T05:46:46.666Z,45.80
2023-02-05T05:47:46.645Z,46.20
2023-02-05T05:48:46.616Z,49.40
2023-02-05T05:49:46.582Z,48.60
2023-02-05T05:50:46.557Z,47.00
2023-02-05T05:51:46.524Z,48.20
2023-02-05T05:52:46.498Z,52.40
2023-02-05T05:53:46.490Z,49.60
2023-02-05T05:54:46.442Z,56.20
2023-02-05T05:55:46.414Z,44.80
2023-02-05T05:56:46.382Z,48.90
2023-02-05T05:57:46.359Z,52.00
2023-02-05T05:58:46.323Z,52.50
2023-02-05T05:59:46.294Z,52.10
2023-02-05T06:00:46.266Z,51.80
2023-02-05T06:01:46.253Z,44.10
2023-02-05T06:02:46.247Z,48.10
2023-02-05T06:03:46.191Z,55.20
2023-02-05T06:04:46.200Z,51.00
2023-02-05T06:05:46.126Z,59.20
2023-02-05T06:06:46.102Z,49.80
2023-02-05T06:07:46.066Z,60.20
2023-02-05T06:08:46.039Z,57.50
2023-02-05T06:09:46.036Z,55.20
2023-02-05T06:10:45.984Z,52.60
2023-02-05T06:11:45.958Z,63.20
2023-02-05T06:12:45.926Z,55.50
2023-02-05T06:13:45.895Z,56.00
2023-02-05T06:14:45.871Z,62.90
2023-02-05T06:15:45.874Z,58.20
2023-02-05T06:16:45.811Z,60.10
2023-02-05T06:17:45.788Z,57.50
2023-02-05T06:18:45.755Z,54.20
2023-02-05T06:19:45.731Z,59.00
2023-02-05T06:20:45.700Z,53.30
2023-02-05T06:21:45.669Z,60.10
2023-02-05T06:22:45.645Z,59.90
2023-02-05T06:23:45.614Z,56.40
2023-02-05T06:24:45.586Z,59.40
2023-02-05T06:25:45.578Z,59.90
2023-02-05T06:26:45.531Z,56.80
2023-02-05T06:27:45.556Z,57.00
2023-02-05T06:28:45.474Z,55.40
2023-02-05T06:29:45.448Z,61.20
2023-02-05T06:30:45.466Z,60.90
2023-02-05T06:31:45.471Z,63.20
2023-02-05T06:32:45.362Z,65.20
2023-02-05T06:33:45.341Z,63.80
2023-02-05T06:34:45.308Z,58.70
2023-02-05T06:35:45.279Z,65.40
2023-02-05T06:36:45.252Z,55.90
2023-02-05T06:37:47.551Z,57.30
2023-02-05T06:38:45.197Z,62.90
2023-02-05T06:39:45.169Z,57.90
2023-02-05T06:40:45.143Z,59.80
2023-02-05T06:41:45.129Z,62.90
2023-02-05T06:42:45.089Z,60.50
2023-02-05T06:43:45.056Z,62.20
2023-02-05T06:44:45.028Z,59.80
2023-02-05T06:45:45.021Z,62.70
2023-02-05T06:46:44.998Z,63.40
2023-02-05T06:47:44.945Z,64.10
2023-02-05T06:48:44.918Z,60.80
2023-02-05T06:49:44.888Z,54.30
2023-02-05T06:50:44.863Z,62.20
2023-02-05T06:51:44.834Z,50.80
2023-02-05T06:52:44.811Z,59.40
2023-02-05T06:53:44.778Z,51.30
2023-02-05T06:54:44.773Z,65.20
2023-02-05T06:55:44.723Z,61.60
2023-02-05T06:56:44.696Z,54.00
2023-02-05T06:57:44.699Z,60.90
2023-02-05T06:58:44.641Z,63.70
2023-02-05T06:59:44.609Z,57.90
2023-02-05T07:00:44.580Z,57.30
2023-02-05T07:01:44.591Z,58.90
2023-02-05T07:02:44.567Z,59.10
2023-02-05T07:03:44.497Z,59.10
2023-02-05T07:04:44.472Z,67.40
2023-02-05T07:05:44.442Z,58.70
2023-02-05T07:06:44.419Z,54.40
2023-02-05T07:07:44.387Z,59.10
2023-02-05T07:08:44.366Z,52.20
2023-02-05T07:09:44.335Z,53.00
2023-02-05T07:10:44.306Z,51.10
2023-02-05T07:11:44.275Z,58.80
2023-02-05T07:12:44.249Z,46.90
2023-02-05T07:13:44.242Z,45.30
2023-02-05T07:14:44.194Z,49.30
2023-02-05T07:15:44.203Z,50.90
2023-02-05T07:16:44.138Z,52.90
2023-02-05T07:17:44.107Z,49.20
2023-02-05T07:18:44.086Z,46.80
2023-02-05T07:19:44.056Z,42.80
2023-02-05T07:20:44.024Z,44.70
2023-02-05T07:21:44.020Z,43.10
2023-02-05T07:22:43.975Z,43.10
2023-02-05T07:23:43.942Z,42.40
2023-02-05T07:24:43.914Z,42.50
2023-02-05T07:25:43.882Z,42.60
2023-02-05T07:26:43.857Z,39.40
2023-02-05T07:27:43.862Z,40.30
2023-02-05T07:28:43.797Z,38.80
2023-02-05T07:29:43.795Z,40.00
2023-02-05T07:30:43.826Z,36.00
2023-02-05T07:31:43.913Z,40.40
2023-02-05T07:32:43.685Z,35.40
2023-02-05T07:33:43.658Z,33.00
2023-02-05T07:34:43.635Z,34.50
2023-02-05T07:35:43.598Z,34.80
2023-02-05T07:36:43.584Z,39.50
2023-02-05T07:37:43.544Z,34.90
2023-02-05T07:38:43.513Z,36.00
2023-02-05T07:39:43.487Z,30.70
2023-02-05T07:40:43.458Z,31.70
2023-02-05T07:41:43.429Z,31.00
2023-02-05T07:42:43.401Z,32.10
2023-02-05T07:43:43.388Z,31.80
2023-02-05T07:44:43.345Z,38.20
2023-02-05T07:45:43.335Z,32.60
2023-02-05T07:46:43.305Z,35.80
2023-02-05T07:47:43.257Z,33.50
2023-02-05T07:48:43.240Z,31.70
2023-02-05T07:49:43.198Z,26.60
2023-02-05T07:50:43.175Z,30.60
2023-02-05T07:51:43.136Z,31.90
2023-02-05T07:52:43.112Z,29.40
2023-02-05T07:53:43.084Z,29.30
2023-02-05T07:54:43.057Z,29.60
2023-02-05T07:55:43.025Z,23.90
2023-02-05T07:56:42.996Z,27.50
2023-02-05T07:57:42.969Z,27.20
2023-02-05T07:58:42.940Z,30.40
2023-02-05T07:59:42.910Z,30.10
2023-02-05T08:00:42.999Z,24.10
2023-02-05T08:01:42.884Z,25.00
2023-02-05T08:02:42.828Z,24.20
2023-02-05T08:03:42.795Z,22.60
2023-02-05T08:04:42.772Z,21.10
2023-02-05T08:05:42.766Z,25.70
2023-02-05T08:06:42.714Z,25.30
2023-02-05T08:07:42.683Z,24.50
2023-02-05T08:08:42.655Z,21.10
2023-02-05T08:09:42.628Z,26.20
2023-02-05T08:10:42.603Z,24.30
2023-02-05T08:11:42.569Z,20.80
2023-02-05T08:12:42.547Z,24.40
2023-02-05T08:13:42.523Z,22.10
2023-02-05T08:14:42.489Z,21.10
2023-02-05T08:15:42.459Z,19.80
2023-02-05T08:16:42.448Z,21.00
2023-02-05T08:17:42.429Z,18.90
2023-02-05T08:18:42.378Z,22.40
2023-02-05T08:19:42.345Z,21.40
2023-02-05T08:20:42.317Z,17.10
2023-02-05T08:21:42.292Z,16.70
2023-02-05T08:22:42.259Z,16.40
2023-02-05T08:23:42.231Z,19.40
2023-02-05T08:24:42.680Z,16.70
2023-02-05T08:25:42.172Z,16.70
2023-02-05T08:26:42.163Z,19.20
2023-02-05T08:27:42.149Z,13.60
2023-02-05T08:28:42.088Z,15.10
2023-02-05T08:29:42.058Z,14.00
2023-02-05T08:30:42.055Z,14.00
2023-02-05T08:31:42.095Z,14.60
2023-02-05T08:32:41.974Z,14.20
2023-02-05T08:33:41.971Z,12.80
2023-02-05T08:34:41.914Z,11.00
2023-02-05T08:35:41.883Z,7.30
2023-02-05T08:36:41.859Z,10.90
2023-02-05T08:37:41.828Z,7.80
2023-02-05T08:38:41.799Z,9.40
2023-02-05T08:39:41.780Z,11.90
2023-02-05T08:40:41.751Z,8.90
2023-02-05T08:41:41.710Z,11.80
2023-02-05T08:42:41.687Z,7.90
2023-02-05T08:43:41.658Z,6.40
2023-02-05T08:44:41.622Z,11.50
2023-02-05T08:45:41.672Z,7.20
2023-02-05T08:46:49.911Z,7.10
2023-02-05T08:47:41.541Z,7.40
2023-02-05T08:48:41.507Z,10.40
2023-02-05T08:49:41.499Z,6.50
2023-02-05T08:50:41.446Z,6.30
2023-02-05T08:51:41.416Z,6.40
2023-02-05T08:52:41.440Z,6.70
2023-02-05T08:53:41.359Z,5.50
2023-02-05T08:54:41.328Z,6.10
2023-02-05T08:55:41.300Z,8.30
2023-02-05T08:56:41.271Z,5.70
2023-02-05T08:57:41.245Z,11.50
2023-02-05T08:58:41.211Z,8.80
2023-02-05T08:59:41.183Z,6.30
2023-02-05T09:00:41.150Z,5.30
2023-02-05T09:01:41.133Z,6.20
2023-02-05T09:02:41.092Z,7.40
2023-02-05T09:03:41.064Z,8.30
2023-02-05T09:04:41.058Z,5.60
2023-02-05T09:05:41.022Z,4.90
2023-02-05T09:06:40.972Z,6.10
2023-02-05T09:07:40.946Z,4.90
2023-02-05T09:08:40.928Z,4.60
2023-02-05T09:09:40.889Z,8.60
2023-02-05T09:10:40.859Z,8.90
2023-02-05T09:11:40.827Z,7.20
2023-02-05T09:12:40.796Z,2.90
2023-02-05T09:13:40.797Z,7.10
2023-02-05T09:14:40.741Z,4.90
2023-02-05T09:15:40.713Z,10.60
2023-02-05T09:16:40.727Z,5.70
2023-02-05T09:17:40.657Z,7.60
2023-02-05T09:18:40.656Z,7.50
2023-02-05T09:19:40.594Z,5.80
2023-02-05T09:20:40.565Z,4.10
2023-02-05T09:21:40.555Z,5.30
2023-02-05T09:22:40.515Z,5.40
2023-02-05T09:23:40.486Z,4.50
2023-02-05T09:24:40.448Z,4.40
2023-02-05T09:25:40.422Z,3.00
2023-02-05T09:26:40.389Z,3.90
2023-02-05T09:27:40.363Z,4.90
2023-02-05T09:28:40.334Z,3.30
2023-02-05T09:29:40.305Z,4.90
2023-02-05T09:30:40.380Z,4.30
2023-02-05T09:31:40.380Z,3.40
2023-02-05T09:32:40.215Z,5.60
2023-02-05T09:33:40.188Z,2.90
2023-02-05T09:34:40.156Z,3.20
2023-02-05T09:35:40.128Z,3.70
2023-02-05T09:36:40.098Z,3.10
2023-02-05T09:37:40.093Z,3.10
2023-02-05T09:38:40.039Z,3.80
2023-02-05T09:40:39.981Z,7.70
2023-02-05T09:41:39.954Z,3.50
2023-02-05T09:42:39.980Z,2.40
2023-02-05T09:43:39.898Z,7.40
2023-02-05T09:44:39.866Z,3.80
2023-02-05T09:45:40.146Z,3.40
2023-02-05T09:46:39.826Z,5.20
2023-02-05T09:47:39.779Z,3.70
2023-02-05T09:48:39.752Z,3.60
2023-02-05T09:49:39.725Z,5.30
2023-02-05T09:50:39.687Z,1.90
2023-02-05T09:51:39.691Z,2.80
2023-02-05T09:52:39.631Z,2.20
2023-02-05T09:53:39.623Z,2.70
2023-02-05T09:54:39.578Z,3.60
2023-02-05T09:55:39.541Z,4.60
2023-02-05T09:56:40.029Z,3.60
2023-02-05T09:57:39.493Z,3.90
2023-02-05T09:58:39.453Z,4.00
2023-02-05T09:59:39.427Z,4.30
2023-02-05T10:00:39.391Z,5.20
2023-02-05T10:01:39.420Z,5.50
2023-02-05T10:02:39.335Z,2.70
2023-02-05T10:03:39.304Z,2.70
2023-02-05T10:04:39.345Z,3.30
2023-02-05T10:05:39.343Z,6.70
2023-02-05T10:06:39.301Z,6.00
2023-02-05T10:07:39.258Z,4.20
2023-02-05T10:08:39.231Z,4.90
2023-02-05T10:09:39.235Z,8.60
2023-02-05T10:10:39.154Z,3.00
2023-02-05T10:11:39.174Z,8.50
2023-02-05T10:12:39.038Z,7.20
2023-02-05T10:13:39.064Z,5.70
2023-02-05T10:14:38.983Z,5.30
2023-02-05T10:15:38.974Z,2.50
2023-02-05T10:16:38.920Z,3.60
2023-02-05T10:17:38.894Z,3.90
2023-02-05T10:18:38.862Z,5.10
2023-02-05T10:19:38.836Z,8.00
2023-02-05T10:20:38.820Z,3.30
2023-02-05T10:21:38.870Z,5.70
2023-02-05T10:22:38.814Z,4.80
2023-02-05T10:23:38.793Z,7.00
2023-02-05T10:24:38.770Z,7.80
2023-02-05T10:25:38.800Z,7.40
2023-02-05T10:26:38.734Z,4.70
2023-02-05T10:27:38.657Z,10.20
2023-02-05T10:28:38.650Z,7.40
2023-02-05T10:29:38.544Z,9.00
2023-02-05T10:30:38.725Z,8.40
2023-02-05T10:31:38.511Z,10.40
2023-02-05T10:32:38.537Z,10.80
2023-02-05T10:33:38.430Z,8.30
2023-02-05T10:34:38.398Z,10.80
2023-02-05T10:35:38.428Z,9.00
2023-02-05T10:36:38.341Z,8.00
2023-02-05T10:37:38.312Z,7.00
2023-02-05T10:38:38.281Z,8.90
2023-02-05T10:39:38.250Z,7.40
2023-02-05T10:40:38.221Z,10.80
2023-02-05T10:41:38.234Z,7.70
2023-02-05T10:42:38.183Z,8.90
2023-02-05T10:43:38.132Z,9.60
2023-02-05T10:44:38.113Z,10.30
2023-02-05T10:45:38.074Z,8.50
2023-02-05T10:46:38.119Z,9.00
2023-02-05T10:47:38.016Z,10.50
2023-02-05T10:48:37.988Z,13.10
2023-02-05T10:49:37.961Z,13.50
2023-02-05T10:50:37.927Z,16.80
2023-02-05T10:51:37.897Z,15.60
2023-02-05T10:52:37.869Z,15.60
2023-02-05T10:53:37.845Z,14.30
2023-02-05T10:54:37.811Z,15.60
2023-02-05T10:55:37.788Z,12.60
2023-02-05T10:56:37.751Z,12.10
2023-02-05T10:57:37.742Z,16.50
2023-02-05T10:58:37.691Z,14.60
2023-02-05T10:59:37.671Z,14.30
2023-02-05T11:00:37.940Z,18.40
2023-02-05T11:01:37.647Z,17.30
2023-02-05T11:02:37.663Z,17.20
2023-02-05T11:03:37.547Z,14.40
2023-02-05T11:04:38.912Z,15.40
2023-02-05T11:05:37.491Z,13.40
2023-02-05T11:06:37.481Z,14.50
2023-02-05T11:07:37.427Z,20.40
2023-02-05T11:08:37.410Z,15.50
2023-02-05T11:09:37.372Z,13.90
2023-02-05T11:10:37.525Z,13.30
2023-02-05T11:11:38.436Z,13.60
2023-02-05T11:12:37.284Z,12.60
2023-02-05T11:13:37.284Z,17.50
2023-02-05T11:14:37.220Z,17.80
2023-02-05T11:15:37.193Z,14.90
2023-02-05T11:16:37.167Z,18.10
2023-02-05T11:17:37.142Z,15.70
2023-02-05T11:18:37.102Z,16.30
2023-02-05T11:19:37.080Z,14.80
2023-02-05T11:20:37.340Z,13.70
2023-02-05T11:21:37.020Z,17.00
2023-02-05T11:22:36.998Z,15.60
2023-02-05T11:23:36.957Z,16.80
2023-02-05T11:24:36.927Z,18.80
2023-02-05T11:25:36.901Z,11.40
2023-02-05T11:26:36.875Z,12.30
2023-02-05T11:27:36.842Z,13.10
2023-02-05T11:28:36.811Z,14.00
2023-02-05T11:29:36.803Z,13.10
2023-02-05T11:30:50.406Z,13.00
2023-02-05T11:31:36.866Z,13.00
2023-02-05T11:32:36.699Z,11.00
2023-02-05T11:33:36.664Z,9.50
2023-02-05T11:34:36.636Z,12.40
2023-02-05T11:35:36.616Z,9.70
2023-02-05T11:36:36.577Z,12.00
2023-02-05T11:37:36.549Z,15.60
2023-02-05T11:38:38.038Z,9.60
2023-02-05T11:39:36.541Z,11.20
2023-02-05T11:40:36.700Z,9.00
2023-02-05T11:41:36.431Z,12.00
2023-02-05T11:42:36.403Z,12.70
2023-02-05T11:43:36.374Z,10.90
2023-02-05T11:44:36.344Z,14.00
2023-02-05T11:45:36.335Z,14.80
2023-02-05T11:46:36.317Z,11.10
2023-02-05T11:47:36.264Z,11.00
2023-02-05T11:48:36.227Z,12.90
2023-02-05T11:49:36.202Z,8.20
2023-02-05T11:50:36.376Z,9.20
2023-02-05T11:51:36.141Z,8.80
2023-02-05T11:52:36.110Z,11.50
2023-02-05T11:53:36.084Z,7.10
2023-02-05T11:54:36.050Z,11.50
2023-02-05T11:55:36.034Z,9.70
2023-02-05T11:56:35.998Z,11.20
2023-02-05T11:57:35.969Z,10.80
2023-02-05T11:58:37.491Z,10.50
2023-02-05T11:59:35.905Z,11.00
2023-02-05T12:00:36.200Z,11.20
2023-02-05T12:01:35.957Z,11.80
2023-02-05T12:02:35.823Z,11.40
2023-02-05T12:03:35.802Z,9.30
2023-02-05T12:04:35.760Z,12.70
2023-02-05T12:05:35.744Z,12.70
2023-02-05T12:06:35.703Z,10.10
2023-02-05T12:07:35.673Z,11.30
2023-02-05T12:08:35.641Z,13.20
2023-02-05T12:09:35.615Z,10.90
2023-02-05T12:10:35.854Z,10.50
2023-02-05T12:11:35.556Z,11.20
2023-02-05T12:12:35.530Z,12.70
2023-02-05T12:13:35.502Z,14.00
2023-02-05T12:14:35.465Z,14.60
2023-02-05T12:15:35.435Z,14.00
2023-02-05T12:16:35.466Z,12.20
2023-02-05T12:17:35.398Z,13.60
2023-02-05T12:18:35.346Z,12.90
2023-02-05T12:19:35.318Z,10.50
2023-02-05T12:20:35.594Z,15.60
2023-02-05T12:21:35.261Z,19.70
2023-02-05T12:22:35.275Z,14.00
2023-02-05T12:23:35.199Z,12.50
2023-02-05T12:24:35.171Z,11.70
2023-02-05T12:25:35.585Z,13.50
2023-02-05T12:26:35.142Z,14.80
2023-02-05T12:27:35.082Z,12.50
2023-02-05T12:28:35.048Z,14.50
2023-02-05T12:29:35.020Z,16.00
2023-02-05T12:30:35.092Z,14.00
2023-02-05T12:31:35.010Z,16.40
2023-02-05T12:32:34.928Z,14.20
2023-02-05T12:33:34.928Z,19.20
2023-02-05T12:34:34.868Z,17.40
2023-02-05T12:35:35.136Z,13.90
2023-02-05T12:36:34.810Z,22.70
2023-02-05T12:37:34.780Z,14.00
2023-02-05T12:38:34.751Z,13.80
2023-02-05T12:39:34.718Z,19.10
2023-02-05T12:40:34.693Z,16.60
2023-02-05T12:41:34.664Z,17.90
2023-02-05T12:42:34.630Z,18.10
2023-02-05T12:43:34.605Z,18.10
2023-02-05T12:44:34.579Z,16.60
2023-02-05T12:45:34.903Z,12.60
2023-02-05T12:46:34.528Z,11.10
2023-02-05T12:47:34.480Z,12.60
2023-02-05T12:48:34.453Z,12.20
2023-02-05T12:49:34.445Z,13.30
2023-02-05T12:50:34.395Z,19.10
2023-02-05T12:51:34.362Z,15.30
2023-02-05T12:52:34.332Z,10.30
2023-02-05T12:53:34.306Z,12.40
2023-02-05T12:54:34.283Z,14.50
2023-02-05T12:55:34.644Z,10.40
2023-02-05T12:56:34.215Z,19.00
2023-02-05T12:57:34.187Z,12.60